Flight Briefing for CPX713

Departure Arrival
Incheon International Airport (RKSI)
Click to view FAA NOTAMS
Tokyo-Narita International Airport (RJAA)
Click to view FAA NOTAMS
Departure Time Arrival Time
N/A N/A
Aircraft Distance
B767-300BDSF 680nm
Departure METAR Arrival METAR
RKSI 221200Z 32012KT CAVOK 04/M10 Q1022 NOSIG RJAA 221200Z 09009KT 9999 FEW030 BKN070 11/04 Q1008 BECMG TL1230 03008KT
Suggested Route
SEL1S SEL G597 KAE Y437 TENAS L512 GTC Y303 KAMOH Y301 SHELY Y30 MELON NORMA


View recent IFR Routes data
Notes



Charts and Procedures

Charts for RKSI
No chart available
Charts for RJAA
No chart available

Windy.com Weather Map